Lynnwood, Washington
Current Conditions -  °F | °C
As of 12:53 PM on Saturday 22 Nov 2014 (Local Time) from KPAE Reporting Station
Broken Clouds Broken Clouds  
Wind Chill: 42°   Ceiling: 1200
Heat Index: 47°   Visibility: 10mi
Dew Point: 42°   Wind: 10mph
Humidity: 83%   Direction: 220°SW
Pressure: 29.84"   Gusts: NA
Location:  47.83°N, 122.29°W
Report Text: KPAE 222053Z 22009KT 10SM FEW010 BKN012 BKN040 08/06 A2984 RMK AO2 PRESRR SLP108 T00830056 53030
Loading
Personal Weather Stations






























Interactive Weather Map New forecast layout! Learn more

10-Day Weather Forecast

Advertisements
Track Severe Weather on mobile